Saturday, September 22, 2018, 11:19 PM EDT
Back to Local

KORH, Worcester Regional Airport

Location: Worcester, MA, United States Lat: 42.267
Local Time: 11:19 PM EDT ( 3:19 GMT) Lon: -71.867
Time Zone: US/Eastern Elev: 1010 ft

Show me the last for .
Show Decoded

2018-09-22 22:54 METAR KORH 230254Z 33005KT 10SM CLR 11/06 A3023 RMK AO2 SLP238 T01110061 51009 =
2018-09-22 21:54 METAR KORH 230154Z 33006KT 10SM CLR 12/07 A3022 RMK AO2 SLP235 T01170067 =
2018-09-22 20:54 METAR KORH 230054Z 34005KT 10SM CLR 13/07 A3022 RMK AO2 SLP236 T01280072 =
2018-09-22 19:54 METAR KORH 222354Z 34007KT 10SM CLR 14/07 A3020 RMK AO2 SLP227 T01390072 10189
                 20139 51013 =
2018-09-22 18:54 METAR KORH 222254Z 31008KT 10SM CLR 14/08 A3019 RMK AO2 SLP225 T01440078 =
2018-09-22 17:54 METAR KORH 222154Z 31006KT 10SM CLR 15/09 A3018 RMK AO2 SLP218 T01500094 =
2018-09-22 16:54 METAR KORH 222054Z 31006KT 10SM CLR 17/09 A3016 RMK AO2 SLP212 T01670089 53012 =
2018-09-22 15:54 METAR KORH 221954Z 32010KT 10SM CLR 18/09 A3014 RMK AO2 SLP205 T01780089 =
2018-09-22 14:54 METAR KORH 221854Z 34011KT 10SM CLR 18/08 A3013 RMK AO2 SLP203 T01830083 =
2018-09-22 13:54 METAR KORH 221754Z 35011KT 10SM CLR 18/09 A3012 RMK AO2 SLP199 T01830089 10189
                 20156 51010 =
2018-09-22 12:54 METAR KORH 221654Z 35013G19KT 10SM CLR 18/08 A3012 RMK AO2 SLP198 T01830083 =
2018-09-22 11:54 METAR KORH 221554Z 32012KT 10SM CLR 18/09 A3010 RMK AO2 SLP191 T01780094 =
2018-09-22 10:54 METAR KORH 221454Z 33009G15KT 290V360 10SM CLR 17/11 A3009 RMK AO2 SLP188
                 T01670106 51029 =
2018-09-22 09:54 METAR KORH 221354Z 31013G19KT 10SM CLR 16/11 A3007 RMK AO2 SLP183 T01560106 =
2018-09-22 08:54 METAR KORH 221254Z 30013G22KT 10SM CLR 16/11 A3004 RMK AO2 SLP171 T01560106 =
2018-09-22 07:54 METAR KORH 221154Z 29015G22KT 10SM CLR 16/11 A3000 RMK AO2 PK WND 28027/1110
                 SLP160 60010 70010 T01560106 10189 20156 51038 =
2018-09-22 06:54 METAR KORH 221054Z 29013G24KT 10SM FEW036 16/12 A2997 RMK AO2 SLP148 T01610122 =
2018-09-22 06:38 METAR KORH 221038Z 29015G24KT 10SM FEW010 SCT029 SCT036 17/13 A2996 RMK AO2
                 T01670133 =
2018-09-22 06:24 METAR KORH 221024Z 29016G25KT 10SM FEW010 BKN022 OVC035 18/15 A2995 RMK AO2
                 T01780150 =
2018-09-22 06:17 METAR KORH 221017Z 30015G20KT 10SM FEW008 BKN013 OVC033 18/17 A2994 =
2018-09-22 06:03 METAR KORH 221003Z 28010KT 10SM FEW009 BKN016 BKN028 19/18 A2993 RMK AO2
                 T01890183 =
2018-09-22 05:54 METAR KORH 220954Z 28012KT 10SM FEW007 BKN014 BKN018 19/18 A2993 RMK AO2 SLP132
                 T01890183 =
2018-09-22 04:54 METAR KORH 220854Z AUTO 26011G19KT 10SM BKN007 BKN013 OVC018 19/19 A2989 RMK AO2
                 CIG 005V010 SLP119 60010 T01890189 55009 =
2018-09-22 03:54 METAR KORH 220754Z AUTO 23013G21KT 10SM OVC006 19/18 A2989 RMK AO2 RAE36 SLP118
                 P0001 T01890183 =
2018-09-22 02:54 METAR KORH 220654Z AUTO 23013KT 6SM RA BR BKN006 BKN050 OVC095 18/18 A2989 RMK
                 AO2 RAB0555 SLP119 P0009 T01830183 =
2018-09-22 02:42 METAR KORH 220642Z AUTO 22017G23KT 7SM RA BKN008 BKN042 OVC095 18/18 A2989 RMK
                 AO2 RAB0555 P0007 T01830183 =
2018-09-22 01:54 METAR KORH 220554Z AUTO 23017G23KT 10SM OVC010 19/18 A2992 RMK AO2 PK WND
                 23030/0525 SLP129 T01890178 10189 20167 55016 =
2018-09-22 00:54 METAR KORH 220454Z 21017G25KT 10SM OVC011 19/17 A2992 RMK AO2 PK WND 20026/0425
                 SLP129 T01890172 401890128 =
2018-09-22 00:18 METAR KORH 220418Z 21016G23KT 10SM OVC013 18/17 A2994 RMK AO2 T01830167 =
2018-09-21 23:54 METAR KORH 220354Z 22014G30KT 10SM BKN018 OVC023 18/16 A2995 RMK AO2 PK WND
                 21030/0345 SLP140 T01830161 =

Support USWX by starting your Amazon purchase here.